Time;durP1;ratioP1;P1;durP2;ratioP2;P2;SDS_P1;SDS_P2;PMS_P1;PMS_P2;Temp;Humidity;BMP_temperature;BMP_pressure;BME280_temperature;BME280_humidity;BME280_pressure;Samples;Min_cycle;Max_cycle;Signal;HPM_P1;HPM_P2
2022/08/11 00:01:51;;;;;;;;;9.67;9.67;;;;;25.24;56.06;101358.69;5023341;28;46041;-83
2022/08/11 00:04:20;;;;;;;;;14.00;11.33;;;;;25.31;56.07;101387.31;5025908;28;44819;-83
2022/08/11 00:06:47;;;;;;;;;11.33;10.33;;;;;25.25;56.21;101377.22;5027068;28;44745;-81
2022/08/11 00:09:20;;;;;;;;;9.33;9.33;;;;;25.21;56.45;101382.59;5037330;28;46583;-83
2022/08/11 00:11:48;;;;;;;;;12.33;12.33;;;;;25.18;56.34;101380.34;5023185;28;45518;-79
2022/08/11 00:14:24;;;;;;;;;12.67;12.00;;;;;25.10;56.34;101373.38;5024251;28;45333;-80
2022/08/11 00:16:56;;;;;;;;;12.33;12.33;;;;;25.11;56.98;101385.47;5023825;28;45800;-80
2022/08/11 00:19:25;;;;;;;;;11.33;10.33;;;;;24.99;56.98;101360.56;5023662;28;46176;-80
2022/08/11 00:21:52;;;;;;;;;11.00;11.00;;;;;25.05;57.49;101378.22;5024647;28;46335;-80
2022/08/11 00:24:20;;;;;;;;;11.33;11.00;;;;;25.02;57.33;101371.22;5024245;28;45417;-79
2022/08/11 00:26:51;;;;;;;;;12.67;10.00;;;;;24.85;57.73;101357.56;5032532;28;45337;-79
2022/08/11 00:29:17;;;;;;;;;11.67;11.00;;;;;24.89;57.80;101361.47;5023999;28;45601;-78
2022/08/11 00:31:49;;;;;;;;;10.00;9.00;;;;;24.92;57.91;101376.91;5038903;28;45502;-78
2022/08/11 00:34:19;;;;;;;;;12.33;9.67;;;;;24.88;57.92;101376.66;5025812;28;45446;-79
2022/08/11 00:36:51;;;;;;;;;9.67;8.67;;;;;24.85;58.05;101383.66;5026327;28;45556;-79
2022/08/11 00:39:26;;;;;;;;;11.00;11.00;;;;;24.80;58.59;101380.06;5029031;28;45543;-82
2022/08/11 00:41:57;;;;;;;;;10.33;9.00;;;;;24.71;58.61;101365.78;5010451;28;45701;-80
2022/08/11 00:44:37;;;;;;;;;15.33;14.67;;;;;24.75;58.81;101380.94;5021989;28;45288;-82
2022/08/11 00:47:33;;;;;;;;;10.67;9.67;;;;;24.72;58.52;101378.69;5025314;28;45433;-79
2022/08/11 00:50:19;;;;;;;;;8.33;8.33;;;;;24.70;58.87;101378.16;4977278;28;45816;-80
2022/08/11 00:53:35;;;;;;;;;7.67;7.67;;;;;24.66;59.17;101379.84;5023375;28;45391;-78
2022/08/11 00:56:18;;;;;;;;;12.67;11.33;;;;;24.61;59.44;101383.53;4969654;28;45503;-81
2022/08/11 00:59:01;;;;;;;;;9.67;9.67;;;;;24.58;59.58;101372.00;4977765;28;45420;-79
2022/08/11 01:01:36;;;;;;;;;12.33;11.00;;;;;24.53;59.97;101378.47;4996842;28;45540;-83
2022/08/11 01:04:46;;;;;;;;;10.67;9.33;;;;;24.48;60.38;101379.34;5027668;28;47207;-83
2022/08/11 01:07:51;;;;;;;;;13.00;10.67;;;;;24.44;60.58;101378.22;5006808;28;45403;-81
2022/08/11 01:10:55;;;;;;;;;10.00;9.33;;;;;24.26;60.64;101356.47;5011721;28;44848;-81
2022/08/11 01:13:21;;;;;;;;;9.67;9.67;;;;;24.37;60.86;101376.88;5027799;28;45273;-79
2022/08/11 01:15:58;;;;;;;;;9.67;9.67;;;;;24.19;61.42;101353.13;5022306;28;47306;-80
2022/08/11 01:18:41;;;;;;;;;12.00;10.67;;;;;24.32;61.32;101372.13;5015294;28;45376;-78
2022/08/11 01:21:16;;;;;;;;;11.67;10.33;;;;;24.29;61.46;101373.53;5023477;28;45397;-81
2022/08/11 01:24:05;;;;;;;;;9.33;9.33;;;;;24.26;61.11;101367.66;5025372;28;45713;-81
2022/08/11 01:27:03;;;;;;;;;12.00;12.00;;;;;24.24;61.09;101367.97;5025222;28;46147;-80
2022/08/11 01:29:50;;;;;;;;;11.67;9.33;;;;;24.21;61.47;101379.75;5038087;28;45414;-82
2022/08/11 01:32:56;;;;;;;;;9.33;8.33;;;;;24.17;61.23;101369.38;5026261;28;45376;-83
2022/08/11 01:35:50;;;;;;;;;7.67;7.67;;;;;24.16;61.77;101371.34;5024344;28;45261;-81
2022/08/11 01:38:49;;;;;;;;;11.33;10.33;;;;;24.13;61.82;101374.72;5026470;28;46446;-83
2022/08/11 01:44:45;;;;;;;;;9.67;9.00;;;;;24.07;62.37;101385.13;5027105;28;45443;-81
2022/08/11 01:47:50;;;;;;;;;10.00;9.00;;;;;24.05;62.40;101375.31;5022712;28;45525;-83
2022/08/11 01:50:38;;;;;;;;;8.33;8.33;;;;;23.91;62.51;101353.50;5023526;28;46386;-78
2022/08/11 01:53:29;;;;;;;;;8.33;8.33;;;;;24.00;62.71;101376.16;5032180;28;45354;-79
2022/08/11 01:56:15;;;;;;;;;11.67;10.00;;;;;23.88;63.03;101361.63;5005877;28;45381;-78
2022/08/11 01:58:57;;;;;;;;;8.33;8.00;;;;;23.86;63.43;101366.66;5027481;28;46206;-79
2022/08/11 02:01:37;;;;;;;;;10.33;9.00;;;;;23.75;63.18;101355.44;5033645;28;45807;-81
2022/08/11 02:04:32;;;;;;;;;9.33;8.00;;;;;23.61;63.25;101338.41;5025597;28;45462;-78
2022/08/11 02:07:12;;;;;;;;;10.33;9.00;;;;;23.86;63.61;101377.88;5029435;28;45328;-78
2022/08/11 02:09:56;;;;;;;;;8.00;8.00;;;;;23.83;63.69;101384.00;5040852;28;45976;-80
2022/08/11 02:12:49;;;;;;;;;9.33;9.33;;;;;23.79;63.80;101381.78;5028124;28;47876;-84
2022/08/11 02:15:35;;;;;;;;;11.67;9.33;;;;;23.71;63.81;101364.69;5027168;28;45447;-82
2022/08/11 02:18:20;;;;;;;;;9.67;9.67;;;;;23.76;63.75;101378.72;5028228;28;45551;-82
2022/08/11 02:23:53;;;;;;;;;9.33;9.33;;;;;23.71;63.32;101379.56;5017069;28;45875;-82
2022/08/11 02:26:38;;;;;;;;;11.67;10.00;;;;;23.67;63.65;101370.03;5019435;28;45381;-81
2022/08/11 02:29:22;;;;;;;;;9.67;9.67;;;;;23.68;63.86;101382.91;5014918;28;45393;-78
2022/08/11 02:35:18;;;;;;;;;13.00;11.00;;;;;23.60;64.04;101367.50;5030712;28;45489;-83
2022/08/11 02:37:57;;;;;;;;;12.33;11.00;;;;;23.54;64.04;101365.84;5028951;28;45744;-83
2022/08/11 02:40:41;;;;;;;;;10.33;10.00;;;;;23.61;63.90;101380.41;5025547;28;45489;-80
2022/08/11 02:43:10;;;;;;;;;7.33;7.00;;;;;23.60;64.17;101372.28;5032495;28;46761;-80
2022/08/11 02:45:48;;;;;;;;;9.67;7.67;;;;;23.57;63.77;101372.84;5027958;28;46186;-80
2022/08/11 02:51:46;;;;;;;;;8.33;8.33;;;;;23.55;63.27;101377.91;5035673;28;45656;-81
2022/08/11 02:54:24;;;;;;;;;13.00;10.67;;;;;23.52;63.17;101379.28;5008228;28;45719;-82
2022/08/11 02:57:01;;;;;;;;;12.67;10.00;;;;;23.51;63.30;101372.00;5017174;28;47814;-80
2022/08/11 02:59:50;;;;;;;;;11.33;8.33;;;;;23.51;62.92;101374.81;5025299;28;45622;-82
2022/08/11 03:02:31;;;;;;;;;12.00;10.67;;;;;23.49;62.94;101379.00;5017096;28;45515;-80
2022/08/11 03:05:09;;;;;;;;;8.67;8.67;;;;;23.48;62.99;101371.75;5028743;28;45889;-81
2022/08/11 03:07:56;;;;;;;;;12.67;10.33;;;;;23.47;62.76;101381.25;5034859;28;47734;-83
2022/08/11 03:10:29;;;;;;;;;10.33;10.33;;;;;23.46;62.66;101380.41;5028819;28;45786;-81
2022/08/11 03:16:45;;;;;;;;;10.67;10.67;;;;;23.41;63.40;101381.25;5021986;28;45660;-82
2022/08/11 03:19:45;;;;;;;;;11.67;9.33;;;;;23.38;62.83;101376.22;5006300;28;45906;-82
2022/08/11 03:22:23;;;;;;;;;12.67;11.00;;;;;23.37;65.97;101373.69;5015118;28;45680;-83
2022/08/11 03:25:13;;;;;;;;;12.00;11.00;;;;;23.33;66.26;101370.59;5016226;28;45823;-81
2022/08/11 03:27:56;;;;;;;;;13.00;11.67;;;;;23.27;68.97;101369.75;5014315;28;46135;-77
2022/08/11 03:30:31;;;;;;;;;12.00;12.00;;;;;23.20;68.29;101360.78;5013730;28;46486;-81
2022/08/11 03:36:26;;;;;;;;;12.33;11.00;;;;;23.09;68.92;101354.38;5017688;28;45362;-81
2022/08/11 03:39:23;;;;;;;;;14.33;11.00;;;;;23.14;72.14;101366.69;5029671;28;45770;-81
2022/08/11 03:42:09;;;;;;;;;11.33;10.33;;;;;23.07;71.10;101362.19;5019994;28;45790;-81
2022/08/11 03:44:59;;;;;;;;;13.67;13.00;;;;;23.03;70.97;101366.63;5035890;28;45413;-82
2022/08/11 03:47:49;;;;;;;;;15.33;12.00;;;;;23.02;69.28;101369.72;5029838;28;45471;-80
2022/08/11 03:50:20;;;;;;;;;15.00;12.67;;;;;23.00;69.09;101375.59;5030578;28;45490;-82
2022/08/11 03:53:07;;;;;;;;;13.33;11.67;;;;;23.00;69.20;101377.56;5030965;28;47940;-80
2022/08/11 03:56:04;;;;;;;;;12.67;10.67;;;;;22.92;69.04;101367.75;5007576;28;45466;-83
2022/08/11 03:58:57;;;;;;;;;13.33;13.00;;;;;22.95;71.71;101369.13;5051290;28;45461;-83
2022/08/11 04:01:44;;;;;;;;;13.67;11.33;;;;;22.92;73.35;101367.75;5049308;28;45712;-85
2022/08/11 04:04:44;;;;;;;;;13.00;12.00;;;;;22.89;74.09;101365.53;5017116;28;47285;-79
2022/08/11 04:07:32;;;;;;;;;13.67;11.33;;;;;22.85;73.02;101365.22;5006799;28;45438;-80
2022/08/11 04:10:30;;;;;;;;;15.00;10.67;;;;;22.77;73.04;101353.72;5015153;28;45909;-82
2022/08/11 04:13:32;;;;;;;;;10.33;10.00;;;;;22.81;72.91;101364.06;4979605;28;45803;-81
2022/08/11 04:16:07;;;;;;;;;14.00;12.00;;;;;22.82;73.69;101367.75;5010184;28;45564;-82
2022/08/11 04:19:04;;;;;;;;;12.33;12.33;;;;;22.81;72.73;101364.06;5013848;28;46004;-81
2022/08/11 04:22:04;;;;;;;;;9.33;8.33;;;;;22.80;72.72;101372.75;5015552;28;45403;-81
2022/08/11 04:25:08;;;;;;;;;9.33;9.33;;;;;22.79;72.62;101380.31;5029496;28;45868;-80
2022/08/11 04:27:58;;;;;;;;;11.33;11.33;;;;;22.77;72.61;101376.97;5016804;28;46066;-81
2022/08/11 04:31:08;;;;;;;;;12.67;9.67;;;;;22.78;72.10;101383.38;5014810;28;44728;-80
2022/08/11 04:33:59;;;;;;;;;15.00;10.67;;;;;22.76;73.16;101377.22;5015351;28;45235;-82
2022/08/11 04:39:58;;;;;;;;;14.67;9.33;;;;;22.73;73.87;101373.03;5006182;28;45491;-81
2022/08/11 04:43:20;;;;;;;;;13.67;12.33;;;;;22.74;74.77;101378.34;5018603;28;44882;-81
2022/08/11 04:45:54;;;;;;;;;15.33;13.00;;;;;22.81;74.67;101372.47;5031208;28;45460;-81
2022/08/11 05:01:39;;;;;;;;;15.67;14.33;;;;;24.07;84.09;101368.31;5015369;28;44821;-83
2022/08/11 05:07:24;;;;;;;;;15.67;15.33;;;;;24.84;81.73;101372.75;5001557;28;45685;-79
2022/08/11 05:10:15;;;;;;;;;19.00;14.33;;;;;25.11;80.15;101371.44;5030007;28;45391;-77
2022/08/11 05:27:09;;;;;;;;;15.67;15.67;;;;;25.49;77.77;101375.34;5028318;28;45764;-79
2022/08/11 05:36:47;;;;;;;;;20.00;13.33;;;;;30.58;49.52;101400.69;5002880;28;45396;-82
2022/08/11 05:56:19;;;;;;;;;12.00;11.00;;;;;35.18;33.19;101400.16;5034664;28;45561;-79
2022/08/11 05:58:53;;;;;;;;;10.33;9.00;;;;;35.70;31.57;101393.50;5008811;28;45898;-79
2022/08/11 06:01:29;;;;;;;;;11.33;11.33;;;;;36.16;30.75;101404.53;5030499;28;48161;-80
2022/08/11 06:04:14;;;;;;;;;9.67;9.67;;;;;36.54;29.99;101407.94;5020625;28;45768;-78
2022/08/11 06:07:08;;;;;;;;;14.67;11.00;;;;;36.72;29.11;101406.34;5033573;28;45663;-78
2022/08/11 06:09:59;;;;;;;;;11.00;11.00;;;;;37.03;28.97;101401.72;5021001;28;45380;-80
2022/08/11 06:12:34;;;;;;;;;11.67;11.67;;;;;37.57;28.89;101410.63;5033633;28;48326;-77
2022/08/11 06:15:05;;;;;;;;;16.67;12.33;;;;;37.84;27.67;101408.69;5010545;28;45797;-80
2022/08/11 06:17:32;;;;;;;;;13.33;12.00;;;;;38.36;26.44;101403.47;5032606;28;45729;-79
2022/08/11 06:20:04;;;;;;;;;13.33;10.00;;;;;39.24;24.83;101389.19;5027889;28;45698;-79
2022/08/11 06:22:32;;;;;;;;;12.00;10.33;;;;;39.88;23.71;101417.78;5013257;28;47003;-80
2022/08/11 06:24:59;;;;;;;;;11.33;10.67;;;;;40.04;23.55;101403.19;5026468;28;45435;-81
2022/08/11 06:27:31;;;;;;;;;13.00;10.67;;;;;40.37;22.18;101415.78;5035316;28;45419;-79
2022/08/11 06:29:58;;;;;;;;;11.33;9.67;;;;;40.33;22.52;101389.06;5025368;28;45430;-78
2022/08/11 06:32:31;;;;;;;;;10.33;10.33;;;;;40.52;21.95;101411.81;5031053;28;46730;-80
2022/08/11 06:35:11;;;;;;;;;8.67;8.67;;;;;40.56;21.81;101400.34;5033469;28;45434;-79
2022/08/11 06:38:08;;;;;;;;;8.33;8.33;;;;;40.64;22.17;101422.16;5043354;28;45754;-78
2022/08/11 06:43:49;;;;;;;;;9.00;9.00;;;;;40.83;21.81;101402.94;5032872;28;45906;-78
2022/08/11 06:46:24;;;;;;;;;10.67;10.00;;;;;40.98;20.98;101398.13;5034618;28;45415;-78
2022/08/11 06:48:53;;;;;;;;;9.00;9.00;;;;;41.24;20.76;101414.28;5028706;28;45697;-78
2022/08/11 06:51:19;;;;;;;;;8.00;8.00;;;;;41.30;20.40;101404.81;5032827;28;45845;-77
2022/08/11 06:53:58;;;;;;;;;11.33;11.33;;;;;41.53;20.82;101409.47;5025244;28;46433;-80
2022/08/11 07:02:12;;;;;;;;;10.33;10.00;;;;;42.01;19.66;101419.84;5010681;28;45482;-80
2022/08/11 07:04:50;;;;;;;;;8.00;8.00;;;;;42.02;19.76;101406.25;5026139;28;46236;-80
2022/08/11 07:16:06;;;;;;;;;11.00;10.33;;;;;42.62;18.54;101411.19;5032616;28;45397;-80
2022/08/11 07:30:01;;;;;;;;;7.67;7.67;;;;;42.48;18.42;101414.91;4996004;28;45439;-83
2022/08/11 07:32:31;;;;;;;;;9.33;8.67;;;;;42.60;17.96;101416.56;5027129;28;45739;-82
2022/08/11 07:35:06;;;;;;;;;11.00;8.33;;;;;42.64;18.31;101405.00;5015535;28;46206;-82
2022/08/11 07:37:33;;;;;;;;;7.67;7.67;;;;;42.90;18.24;101409.47;5033270;28;45809;-82
2022/08/11 07:39:59;;;;;;;;;8.00;7.33;;;;;43.00;17.85;101376.09;5037407;28;45369;-84
2022/08/11 07:42:34;;;;;;;;;8.00;8.00;;;;;43.15;17.81;101383.41;5015641;28;45573;-83
2022/08/11 07:53:26;;;;;;;;;7.33;7.33;;;;;44.42;16.72;101403.59;5016733;28;45459;-82
2022/08/11 07:55:55;;;;;;;;;6.33;6.33;;;;;44.56;16.75;101388.97;5015396;28;46251;-79
2022/08/11 08:17:56;;;;;;;;;9.00;6.67;;;;;47.48;14.27;101368.81;5032877;28;45239;-79
2022/08/11 08:20:25;;;;;;;;;6.67;6.33;;;;;46.97;14.85;101386.53;5021060;28;47298;-80
2022/08/11 08:22:55;;;;;;;;;8.33;7.67;;;;;45.71;15.09;101378.00;5014208;28;45720;-81
2022/08/11 08:25:22;;;;;;;;;6.00;6.00;;;;;44.47;15.66;101390.75;5014262;28;45438;-79
2022/08/11 08:27:50;;;;;;;;;7.00;5.00;;;;;42.84;16.56;101382.28;5013802;28;46060;-80
2022/08/11 08:33:04;;;;;;;;;7.67;7.67;;;;;40.48;18.24;101387.13;5013618;28;45443;-81
2022/08/11 08:35:30;;;;;;;;;8.00;7.00;;;;;40.81;17.86;101376.66;5011266;28;45498;-81
2022/08/11 08:37:58;;;;;;;;;6.00;6.00;;;;;41.39;17.91;101374.88;5021473;28;45439;-79
2022/08/11 08:40:25;;;;;;;;;7.00;7.00;;;;;42.04;17.35;101354.78;5045332;28;45644;-78
2022/08/11 08:42:54;;;;;;;;;6.33;6.33;;;;;42.72;16.79;101379.88;5022327;28;45462;-82
2022/08/11 08:45:20;;;;;;;;;5.00;5.00;;;;;43.45;16.68;101389.88;5028506;28;45778;-80
2022/08/11 08:48:07;;;;;;;;;7.33;7.00;;;;;44.21;16.20;101378.56;4995158;28;45600;-79
2022/08/11 08:53:30;;;;;;;;;7.00;5.33;;;;;45.70;15.36;101373.47;5014381;28;45733;-78
2022/08/11 08:55:58;;;;;;;;;6.67;6.67;;;;;46.55;14.82;101394.78;5031581;28;45510;-81
2022/08/11 08:58:25;;;;;;;;;5.00;5.00;;;;;46.97;14.40;101372.03;5032841;28;45878;-77
2022/08/11 09:00:55;;;;;;;;;7.00;7.00;;;;;47.20;14.06;101391.41;5031796;28;46433;-80
2022/08/11 09:03:23;;;;;;;;;7.00;6.00;;;;;47.47;13.95;101388.31;5029239;28;45525;-84
2022/08/11 09:05:53;;;;;;;;;6.67;6.00;;;;;47.74;14.01;101385.19;5013798;28;45309;-82
2022/08/11 09:08:20;;;;;;;;;6.67;6.67;;;;;48.08;14.09;101386.03;5030797;28;46003;-81
2022/08/11 09:11:48;;;;;;;;;6.00;6.00;;;;;48.45;13.68;101366.38;5012128;28;47133;-82
2022/08/11 09:13:34;;;;;;;;;5.67;5.67;;;;;49.01;13.70;101370.16;5017550;28;45283;-82
2022/08/11 09:16:04;;;;;;;;;6.00;6.00;;;;;49.30;12.67;101387.56;5031955;28;45548;-83
2022/08/11 09:18:31;;;;;;;;;5.33;5.33;;;;;49.35;12.71;101377.41;5027023;28;45488;-82
2022/08/11 09:21:01;;;;;;;;;4.00;4.00;;;;;49.33;12.72;101392.47;5027469;28;45480;-82
2022/08/11 09:28:59;;;;;;;;;7.00;7.00;;;;;49.06;13.12;101373.28;5034559;28;45430;-81
2022/08/11 09:31:25;;;;;;;;;6.33;6.33;;;;;49.02;13.16;101377.59;5035467;28;45570;-82
2022/08/11 09:33:53;;;;;;;;;6.00;6.00;;;;;49.11;13.04;101363.19;5034317;28;45334;-81
2022/08/11 09:41:50;;;;;;;;;5.00;5.00;;;;;49.69;12.13;101355.53;5033834;28;45797;-80
2022/08/11 09:47:01;;;;;;;;;5.00;5.00;;;;;49.99;12.19;101352.00;5034084;28;45283;-80
2022/08/11 09:49:28;;;;;;;;;4.00;4.00;;;;;50.54;11.73;101356.69;5034762;28;45555;-82
2022/08/11 09:51:55;;;;;;;;;4.67;4.67;;;;;50.90;11.85;101367.00;5031908;28;47370;-80
2022/08/11 09:54:24;;;;;;;;;5.67;5.67;;;;;51.02;11.88;101362.41;5022502;28;45441;-80
2022/08/11 09:59:37;;;;;;;;;5.67;5.00;;;;;51.28;10.99;101339.66;5020889;28;45365;-81
2022/08/11 10:02:05;;;;;;;;;4.00;4.00;;;;;51.04;10.72;101346.03;5009968;28;46394;-79
2022/08/11 10:04:47;;;;;;;;;4.67;4.67;;;;;50.98;11.52;101350.88;5025255;28;45651;-79
2022/08/11 10:07:15;;;;;;;;;4.33;4.33;;;;;50.62;11.22;101352.25;5034063;28;45469;-84
2022/08/11 10:10:00;;;;;;;;;4.00;4.00;;;;;49.79;10.54;101363.09;5049971;28;46177;-83
2022/08/11 10:12:32;;;;;;;;;5.00;5.00;;;;;49.16;11.47;101335.56;5036435;28;45922;-82
2022/08/11 10:20:44;;;;;;;;;4.00;4.00;;;;;48.24;12.04;101330.75;5023525;28;45548;-82
2022/08/11 10:28:42;;;;;;;;;4.00;4.00;;;;;47.50;12.42;101314.75;5016447;28;45750;-81
2022/08/11 10:34:04;;;;;;;;;6.00;6.00;;;;;47.54;11.84;101332.94;5017358;28;45820;-80
2022/08/11 10:36:49;;;;;;;;;4.67;4.67;;;;;47.29;12.54;101329.78;5022924;28;45918;-80
2022/08/11 10:39:17;;;;;;;;;7.00;7.00;;;;;47.01;12.22;101320.47;5019464;28;45722;-81
2022/08/11 10:44:34;;;;;;;;;7.33;6.00;;;;;46.36;12.48;101341.31;5015949;28;45392;-82
2022/08/11 10:51:11;;;;;;;;;5.33;5.33;;;;;45.34;13.17;101292.88;5035362;28;45478;-82
2022/08/11 11:00:45;;;;;;;;;6.67;5.67;;;;;43.84;13.99;101307.91;5018310;28;45780;-82
2022/08/11 11:03:12;;;;;;;;;5.67;5.67;;;;;43.77;14.36;101296.38;5015339;28;45831;-81
2022/08/11 11:05:40;;;;;;;;;6.33;6.00;;;;;44.06;14.43;101274.66;5015049;28;45751;-83
2022/08/11 11:10:59;;;;;;;;;7.67;7.00;;;;;44.13;14.14;101290.28;5016608;28;45702;-82
2022/08/11 11:18:58;;;;;;;;;7.33;7.33;;;;;42.57;15.22;101261.63;5014446;28;45708;-81
2022/08/11 11:21:24;;;;;;;;;7.00;7.00;;;;;42.10;15.44;101289.72;5014837;28;45408;-81
2022/08/11 11:24:13;;;;;;;;;8.00;8.00;;;;;41.58;15.88;101273.72;5014812;28;45502;-80
2022/08/11 11:27:12;;;;;;;;;7.67;7.00;;;;;40.87;16.44;101303.94;5013219;28;46900;-83
2022/08/11 11:29:56;;;;;;;;;6.00;6.00;;;;;40.15;16.47;101283.41;5015538;28;45870;-82
2022/08/11 11:32:34;;;;;;;;;3.00;3.00;;;;;39.56;17.08;101268.19;5014286;28;45376;-82
2022/08/11 11:35:14;;;;;;;;;7.00;7.00;;;;;38.94;17.33;101272.41;5013492;28;45793;-82
2022/08/11 11:37:43;;;;;;;;;9.67;9.00;;;;;38.30;17.84;101268.31;5002329;28;46556;-82
2022/08/11 11:40:12;;;;;;;;;6.33;6.33;;;;;37.67;18.64;101272.59;5028362;28;45395;-82
2022/08/11 11:42:40;;;;;;;;;6.67;6.67;;;;;37.14;18.95;101269.56;5015041;28;45772;-82
2022/08/11 11:45:08;;;;;;;;;7.67;7.00;;;;;36.50;19.47;101281.28;5027096;28;45432;-82
2022/08/11 11:47:36;;;;;;;;;7.00;7.00;;;;;35.74;19.64;101245.22;5014226;28;47352;-81
2022/08/11 11:50:03;;;;;;;;;9.67;7.00;;;;;35.37;20.23;101271.16;5012870;28;45577;-83
2022/08/11 11:52:29;;;;;;;;;7.67;7.67;;;;;34.97;20.48;101241.56;5023731;28;45413;-84
2022/08/11 11:54:57;;;;;;;;;6.67;6.67;;;;;34.68;20.81;101221.97;5050651;28;45743;-80
2022/08/11 12:03:06;;;;;;;;;8.00;7.00;;;;;33.71;21.60;101225.44;5026641;28;45473;-81
2022/08/11 12:05:35;;;;;;;;;6.00;6.00;;;;;33.56;22.10;101230.63;5025257;28;45297;-82
2022/08/11 12:08:18;;;;;;;;;7.67;7.00;;;;;33.43;21.99;101226.97;5015146;28;45794;-82
2022/08/11 12:13:39;;;;;;;;;8.00;8.00;;;;;33.07;22.43;101188.75;5024522;28;45677;-82
2022/08/11 12:13:40;;;;;;;;;8.67;8.67;;;;;33.14;22.80;101235.66;5011809;28;45710;-83
2022/08/11 12:16:08;;;;;;;;;5.00;5.00;;;;;32.89;22.78;101236.41;5030364;28;46707;-80
2022/08/11 12:18:35;;;;;;;;;6.00;6.00;;;;;32.79;23.20;101247.41;5032157;28;45821;-81
2022/08/11 12:21:02;;;;;;;;;6.67;5.00;;;;;32.71;23.12;101234.91;5017752;28;45707;-84
2022/08/11 12:29:03;;;;;;;;;7.00;7.00;;;;;32.25;23.19;101231.94;5032091;28;45791;-82
2022/08/11 12:31:30;;;;;;;;;8.00;7.67;;;;;32.25;23.17;101211.22;5021438;28;45593;-81
2022/08/11 12:34:26;;;;;;;;;9.00;9.00;;;;;32.20;23.59;101232.97;5020538;28;45759;-81
2022/08/11 12:36:58;;;;;;;;;9.67;8.00;;;;;32.15;23.50;101216.13;5030030;28;45811;-81
2022/08/11 12:54:13;;;;;;;;;7.67;7.67;;;;;31.93;24.06;101190.91;5006618;28;45497;-81
2022/08/11 13:05:07;;;;;;;;;8.00;7.00;;;;;32.10;24.12;101212.63;5020764;28;45380;-82
2022/08/11 13:07:38;;;;;;;;;9.00;9.00;;;;;32.07;24.43;101188.63;5028539;28;45359;-80
2022/08/11 13:10:07;;;;;;;;;5.67;5.67;;;;;32.04;24.61;101183.66;5024808;28;46039;-83
2022/08/11 13:12:49;;;;;;;;;7.00;7.00;;;;;32.02;24.40;101168.97;5028551;28;45481;-82
2022/08/11 13:15:22;;;;;;;;;9.00;7.00;;;;;32.04;24.40;101170.28;5013482;28;45761;-83
2022/08/11 13:17:50;;;;;;;;;7.33;7.33;;;;;31.95;24.89;101163.03;5031741;28;45501;-81
2022/08/11 13:20:36;;;;;;;;;9.00;8.00;;;;;31.92;24.55;101153.19;5019139;28;45826;-82
2022/08/11 13:23:02;;;;;;;;;7.33;7.33;;;;;31.97;24.82;101170.00;5016540;28;45375;-80
2022/08/11 13:25:31;;;;;;;;;7.67;7.67;;;;;32.12;24.65;101185.63;5018501;28;45479;-81
2022/08/11 13:27:59;;;;;;;;;10.67;8.00;;;;;32.11;24.45;101163.25;5017878;28;45541;-80
2022/08/11 13:33:12;;;;;;;;;8.33;7.00;;;;;32.12;23.78;101211.16;5031046;28;45367;-82
2022/08/11 13:35:38;;;;;;;;;7.67;7.67;;;;;32.08;23.69;101172.44;5033799;28;45914;-82
2022/08/11 13:38:05;;;;;;;;;8.33;8.33;;;;;32.30;23.52;101199.69;5021936;28;45644;-82
2022/08/11 13:40:53;;;;;;;;;8.33;7.33;;;;;32.09;23.74;101152.22;5010328;28;45818;-80
2022/08/11 13:43:21;;;;;;;;;6.00;6.00;;;;;32.18;23.92;101160.69;5034628;28;47825;-81
2022/08/11 13:45:48;;;;;;;;;8.00;8.00;;;;;32.20;24.06;101164.00;5034330;28;45458;-81
2022/08/11 13:48:15;;;;;;;;;8.00;8.00;;;;;32.35;23.97;101188.09;5027668;28;45617;-82
2022/08/11 13:53:29;;;;;;;;;9.00;9.00;;;;;32.46;23.53;101188.53;5030009;28;45767;-82
2022/08/11 13:55:59;;;;;;;;;9.00;9.00;;;;;32.37;23.23;101160.22;5039129;28;45323;-83
2022/08/11 13:58:26;;;;;;;;;12.33;9.00;;;;;32.29;23.35;101173.31;5028410;28;45556;-82
2022/08/11 14:00:53;;;;;;;;;12.67;10.00;;;;;32.26;22.72;101159.78;5034774;28;45521;-81
2022/08/11 14:03:24;;;;;;;;;9.33;8.33;;;;;32.35;23.61;101160.56;5035900;28;45737;-81
2022/08/11 14:05:52;;;;;;;;;8.00;8.00;;;;;32.48;23.34;101180.47;5022287;28;45477;-81
2022/08/11 14:08:26;;;;;;;;;7.00;7.00;;;;;32.47;23.98;101165.47;5036384;28;45835;-80
2022/08/11 14:13:42;;;;;;;;;8.67;8.67;;;;;32.41;23.65;101169.66;5037029;28;45690;-82
2022/08/11 14:16:17;;;;;;;;;9.67;7.67;;;;;32.44;23.46;101160.47;5031201;28;45735;-81
2022/08/11 14:18:45;;;;;;;;;9.00;9.00;;;;;32.42;24.30;101150.66;5031806;28;45525;-78
2022/08/11 14:24:02;;;;;;;;;5.33;5.33;;;;;32.47;23.63;101142.75;5037152;28;45429;-80
2022/08/11 14:26:30;;;;;;;;;11.00;8.00;;;;;32.58;24.20;101156.47;5030029;28;45796;-81
2022/08/11 14:29:09;;;;;;;;;10.33;7.00;;;;;32.47;24.43;101156.94;5022372;28;45491;-82
2022/08/11 14:31:37;;;;;;;;;9.00;8.00;;;;;32.59;24.34;101173.16;5016845;28;47022;-81
2022/08/11 14:34:06;;;;;;;;;9.00;8.00;;;;;32.48;24.62;101132.22;5026442;28;45513;-80
2022/08/11 14:36:39;;;;;;;;;7.00;7.00;;;;;32.33;24.25;101114.63;5027632;28;45356;-81
2022/08/11 14:39:11;;;;;;;;;7.67;6.33;;;;;32.36;24.18;101128.13;5024193;28;45518;-80
2022/08/11 14:47:13;;;;;;;;;10.00;9.00;;;;;32.30;24.20;101084.13;5030743;28;45764;-81
2022/08/11 14:49:44;;;;;;;;;8.00;8.00;;;;;32.36;24.04;101104.59;5036458;28;45703;-81
2022/08/11 14:52:14;;;;;;;;;6.00;6.00;;;;;32.64;23.75;101130.38;5013997;28;45581;-80
2022/08/11 14:57:30;;;;;;;;;6.67;6.67;;;;;32.69;24.55;101118.00;4999033;28;45515;-81
2022/08/11 15:00:00;;;;;;;;;8.00;8.00;;;;;32.58;23.67;101100.53;5017179;28;45480;-82
2022/08/11 15:05:16;;;;;;;;;7.33;7.33;;;;;32.69;23.59;101103.78;5015422;28;45428;-81
2022/08/11 15:07:42;;;;;;;;;8.67;7.67;;;;;32.49;23.72;101089.28;5015558;28;45538;-80
2022/08/11 15:10:09;;;;;;;;;8.67;6.00;;;;;32.62;23.85;101092.13;5027119;28;45553;-80
2022/08/11 15:12:38;;;;;;;;;10.33;9.00;;;;;32.74;23.55;101092.19;5043675;28;45443;-81
2022/08/11 15:18:04;;;;;;;;;8.00;8.00;;;;;32.62;23.49;101086.47;4987636;28;45820;-82
2022/08/11 15:26:12;;;;;;;;;9.33;8.33;;;;;32.74;23.31;101080.81;5010824;28;45372;-82
2022/08/11 15:37:26;;;;;;;;;8.67;8.67;;;;;32.76;23.15;101069.09;5001906;28;45424;-82
2022/08/11 15:45:50;;;;;;;;;6.00;6.00;;;;;32.87;23.10;101110.09;5034117;28;45748;-83
2022/08/11 15:48:27;;;;;;;;;8.67;7.67;;;;;32.49;23.39;101040.19;5032154;28;46849;-83
2022/08/11 15:50:56;;;;;;;;;6.33;6.33;;;;;32.72;23.24;101066.16;5033638;28;45699;-85
2022/08/11 15:53:33;;;;;;;;;8.00;8.00;;;;;32.99;23.32;101095.06;5017337;28;45761;-81
2022/08/11 15:56:00;;;;;;;;;5.00;5.00;;;;;33.03;23.59;101076.13;5013160;28;46131;-81
2022/08/11 16:04:11;;;;;;;;;9.00;9.00;;;;;33.12;23.14;101056.13;5003136;28;45858;-81
2022/08/11 16:06:55;;;;;;;;;11.00;9.67;;;;;33.29;23.09;101075.78;5029328;28;46066;-82
2022/08/11 16:09:26;;;;;;;;;12.67;11.00;;;;;33.17;23.15;101045.34;5021440;28;47380;-82
2022/08/11 16:11:55;;;;;;;;;7.67;7.67;;;;;33.34;23.23;101069.88;5014950;28;45258;-83
2022/08/11 16:17:10;;;;;;;;;8.00;8.00;;;;;33.31;23.00;101041.31;5015782;28;45386;-80
2022/08/11 16:19:38;;;;;;;;;7.33;7.33;;;;;33.31;23.22;101062.06;5017148;28;48361;-82
2022/08/11 16:22:08;;;;;;;;;11.67;9.67;;;;;33.21;22.70;101057.69;5013188;28;45698;-82
2022/08/11 16:24:43;;;;;;;;;10.00;7.00;;;;;33.23;22.73;101066.66;5029154;28;45720;-83
2022/08/11 16:27:13;;;;;;;;;7.00;7.00;;;;;33.05;22.92;101057.53;5021490;28;45957;-83
2022/08/11 16:29:44;;;;;;;;;8.67;8.00;;;;;33.00;22.67;101042.75;5020615;28;45297;-83
2022/08/11 16:32:19;;;;;;;;;9.67;9.67;;;;;33.05;23.33;101051.03;5035766;28;45469;-81
2022/08/11 16:40:21;;;;;;;;;8.33;7.33;;;;;32.91;23.63;101020.97;5020029;28;45492;-82
2022/08/11 16:48:20;;;;;;;;;8.67;8.67;;;;;32.92;23.48;101041.66;5018406;28;45372;-80
2022/08/11 16:50:46;;;;;;;;;10.33;9.33;;;;;32.93;23.00;101046.16;4999667;28;46689;-82
2022/08/11 16:53:14;;;;;;;;;12.67;8.33;;;;;32.81;23.31;101035.63;5014795;28;45462;-83